createdAt,value
2018-02-21T00:00:46.638Z,59.10
2018-02-21T00:01:46.649Z,57.60
2018-02-21T00:02:46.661Z,56.40
2018-02-21T00:03:46.690Z,58.40
2018-02-21T00:04:46.689Z,56.80
2018-02-21T00:05:46.700Z,55.10
2018-02-21T00:06:46.751Z,56.80
2018-02-21T00:07:46.725Z,56.70
2018-02-21T00:08:46.742Z,54.10
2018-02-21T00:09:46.753Z,54.80
2018-02-21T00:10:46.767Z,54.40
2018-02-21T00:11:46.778Z,57.60
2018-02-21T00:12:46.790Z,53.10
2018-02-21T00:13:46.806Z,54.20
2018-02-21T00:14:46.816Z,54.70
2018-02-21T00:15:46.828Z,53.80
2018-02-21T00:16:46.842Z,56.20
2018-02-21T00:17:46.854Z,55.00
2018-02-21T00:18:46.875Z,55.30
2018-02-21T00:19:46.878Z,58.20
2018-02-21T00:20:46.891Z,56.30
2018-02-21T00:21:46.902Z,58.50
2018-02-21T00:22:46.916Z,57.40
2018-02-21T00:23:46.929Z,57.00
2018-02-21T00:24:46.949Z,59.40
2018-02-21T00:25:46.955Z,58.70
2018-02-21T00:26:46.964Z,57.90
2018-02-21T00:27:46.981Z,59.20
2018-02-21T00:28:46.989Z,59.90
2018-02-21T00:29:47.000Z,59.40
2018-02-21T00:30:47.013Z,57.60
2018-02-21T00:31:47.028Z,57.60
2018-02-21T00:32:47.038Z,56.90
2018-02-21T00:33:47.055Z,60.10
2018-02-21T00:34:47.067Z,61.40
2018-02-21T00:35:47.073Z,61.30
2018-02-21T00:36:47.087Z,59.70
2018-02-21T00:37:47.101Z,61.50
2018-02-21T00:38:47.112Z,61.80
2018-02-21T00:39:47.122Z,62.40
2018-02-21T00:40:47.135Z,62.30
2018-02-21T00:41:47.147Z,62.80
2018-02-21T00:42:47.161Z,63.30
2018-02-21T00:43:47.173Z,63.10
2018-02-21T00:44:47.188Z,64.20
2018-02-21T00:45:47.197Z,64.10
2018-02-21T00:46:47.213Z,63.40
2018-02-21T00:47:47.222Z,64.90
2018-02-21T00:48:47.231Z,64.70
2018-02-21T00:49:47.244Z,66.20
2018-02-21T00:50:47.257Z,65.00
2018-02-21T00:51:47.267Z,64.50
2018-02-21T00:52:47.282Z,67.00
2018-02-21T00:53:47.292Z,64.90
2018-02-21T00:54:47.316Z,65.90
2018-02-21T00:55:47.316Z,65.00
2018-02-21T00:56:47.327Z,66.00
2018-02-21T00:57:47.338Z,66.70
2018-02-21T00:58:47.349Z,65.60
2018-02-21T00:59:47.361Z,65.40
2018-02-21T01:00:47.373Z,65.90
2018-02-21T01:01:47.383Z,67.60
2018-02-21T01:02:47.397Z,66.50
2018-02-21T01:03:47.408Z,66.30
2018-02-21T01:04:47.421Z,65.50
2018-02-21T01:05:47.432Z,66.50
2018-02-21T01:06:47.446Z,72.50
2018-02-21T01:07:47.456Z,67.70
2018-02-21T01:08:47.468Z,65.40
2018-02-21T01:09:47.478Z,67.50
2018-02-21T01:10:47.489Z,66.70
2018-02-21T01:11:47.503Z,67.70
2018-02-21T01:12:47.518Z,65.30
2018-02-21T01:13:47.523Z,67.30
2018-02-21T01:14:47.533Z,65.10
2018-02-21T01:15:47.546Z,66.40
2018-02-21T01:16:47.560Z,65.60
2018-02-21T01:17:47.571Z,66.10
2018-02-21T01:18:47.579Z,66.40
2018-02-21T01:19:47.592Z,68.00
2018-02-21T01:20:47.602Z,66.20
2018-02-21T01:21:47.615Z,66.90
2018-02-21T01:22:47.628Z,68.40
2018-02-21T01:23:47.644Z,69.10
2018-02-21T01:24:47.650Z,67.10
2018-02-21T01:25:47.661Z,68.70
2018-02-21T01:26:47.674Z,67.70
2018-02-21T01:27:47.683Z,66.60
2018-02-21T01:28:47.696Z,68.90
2018-02-21T01:29:47.707Z,69.00
2018-02-21T01:30:47.720Z,70.00
2018-02-21T01:31:47.729Z,69.90
2018-02-21T01:32:47.741Z,70.30
2018-02-21T01:33:47.752Z,69.70
2018-02-21T01:34:47.763Z,68.60
2018-02-21T01:35:47.776Z,69.20
2018-02-21T01:36:47.788Z,70.20
2018-02-21T01:37:47.799Z,74.70
2018-02-21T01:38:47.811Z,74.50
2018-02-21T01:39:47.824Z,72.30
2018-02-21T01:40:47.833Z,69.00
2018-02-21T01:41:47.843Z,70.70
2018-02-21T01:42:47.851Z,70.00
2018-02-21T01:43:47.865Z,69.80
2018-02-21T01:44:47.876Z,72.70
2018-02-21T01:45:47.887Z,70.50
2018-02-21T01:46:47.897Z,71.40
2018-02-21T01:47:47.911Z,71.10
2018-02-21T01:48:47.922Z,71.70
2018-02-21T01:49:47.932Z,73.50
2018-02-21T01:50:47.946Z,72.60
2018-02-21T01:51:47.955Z,71.70
2018-02-21T01:52:47.967Z,74.50
2018-02-21T01:53:47.988Z,69.60
2018-02-21T01:54:47.986Z,69.20
2018-02-21T01:55:48.002Z,69.50
2018-02-21T01:56:48.012Z,70.10
2018-02-21T01:57:48.025Z,70.00
2018-02-21T01:58:48.032Z,70.60
2018-02-21T01:59:48.044Z,70.60
2018-02-21T02:00:48.060Z,71.40
2018-02-21T02:01:48.064Z,70.10
2018-02-21T02:02:48.078Z,72.50
2018-02-21T02:03:48.091Z,74.40
2018-02-21T02:04:48.099Z,72.60
2018-02-21T02:05:48.106Z,72.10
2018-02-21T02:06:48.125Z,72.80
2018-02-21T02:07:48.135Z,74.50
2018-02-21T02:08:48.142Z,74.30
2018-02-21T02:09:48.155Z,73.10
2018-02-21T02:10:48.164Z,72.90
2018-02-21T02:11:48.179Z,72.20
2018-02-21T02:12:48.188Z,70.50
2018-02-21T02:13:48.222Z,70.60
2018-02-21T02:14:48.209Z,74.00
2018-02-21T02:15:48.222Z,72.50
2018-02-21T02:16:48.231Z,72.30
2018-02-21T02:17:48.242Z,69.80
2018-02-21T02:18:48.255Z,71.10
2018-02-21T02:19:48.265Z,70.60
2018-02-21T02:20:48.272Z,70.90
2018-02-21T02:21:48.286Z,67.80
2018-02-21T02:22:48.298Z,70.20
2018-02-21T02:23:48.306Z,70.10
2018-02-21T02:24:48.317Z,70.80
2018-02-21T02:25:48.333Z,70.80
2018-02-21T02:26:48.339Z,67.50
2018-02-21T02:27:48.353Z,67.00
2018-02-21T02:28:48.361Z,68.20
2018-02-21T02:29:48.374Z,65.70
2018-02-21T02:30:48.384Z,64.60
2018-02-21T02:31:48.395Z,65.40
2018-02-21T02:32:48.417Z,64.60
2018-02-21T02:33:48.415Z,65.00
2018-02-21T02:34:48.428Z,66.10
2018-02-21T02:35:48.438Z,65.70
2018-02-21T02:36:48.451Z,66.20
2018-02-21T02:37:48.456Z,67.30
2018-02-21T02:38:48.471Z,66.50
2018-02-21T02:39:48.482Z,65.10
2018-02-21T02:40:48.494Z,67.00
2018-02-21T02:41:48.505Z,64.90
2018-02-21T02:42:48.518Z,64.00
2018-02-21T02:43:48.525Z,65.40
2018-02-21T02:44:48.537Z,63.90
2018-02-21T02:45:48.545Z,63.50
2018-02-21T02:46:48.561Z,64.10
2018-02-21T02:47:48.702Z,62.20
2018-02-21T02:48:48.579Z,63.30
2018-02-21T02:49:48.594Z,61.40
2018-02-21T02:50:48.605Z,62.70
2018-02-21T02:51:48.619Z,63.90
2018-02-21T02:52:48.624Z,63.90
2018-02-21T02:53:48.636Z,60.60
2018-02-21T02:54:48.642Z,63.60
2018-02-21T02:55:48.653Z,64.10
2018-02-21T02:56:48.664Z,63.90
2018-02-21T02:57:48.673Z,64.10
2018-02-21T02:58:48.686Z,65.60
2018-02-21T02:59:48.704Z,63.10
2018-02-21T03:00:48.708Z,65.30
2018-02-21T03:01:48.726Z,67.60
2018-02-21T03:02:48.741Z,65.10
2018-02-21T03:03:48.742Z,67.40
2018-02-21T03:04:48.751Z,67.40
2018-02-21T03:05:48.764Z,64.90
2018-02-21T03:06:48.769Z,67.70
2018-02-21T03:07:48.781Z,66.40
2018-02-21T03:08:48.793Z,65.70
2018-02-21T03:09:48.803Z,67.10
2018-02-21T03:10:48.813Z,65.60
2018-02-21T03:11:48.826Z,68.60
2018-02-21T03:12:48.836Z,64.90
2018-02-21T03:13:48.844Z,67.40
2018-02-21T03:14:48.856Z,65.50
2018-02-21T03:15:48.868Z,62.60
2018-02-21T03:16:48.887Z,63.80
2018-02-21T03:17:48.892Z,63.50
2018-02-21T03:18:48.900Z,64.30
2018-02-21T03:19:48.915Z,63.30
2018-02-21T03:20:48.922Z,62.90
2018-02-21T03:21:48.932Z,63.90
2018-02-21T03:22:49.082Z,63.70
2018-02-21T03:23:48.952Z,62.10
2018-02-21T03:24:48.964Z,64.00
2018-02-21T03:25:48.974Z,63.40
2018-02-21T03:26:48.982Z,63.70
2018-02-21T03:27:49.004Z,63.50
2018-02-21T03:28:49.006Z,62.40
2018-02-21T03:29:49.020Z,62.50
2018-02-21T03:30:49.034Z,65.90
2018-02-21T03:31:49.042Z,62.30
2018-02-21T03:32:49.048Z,62.20
2018-02-21T03:33:49.058Z,61.60
2018-02-21T03:34:49.080Z,63.20
2018-02-21T03:35:49.078Z,62.10
2018-02-21T03:36:49.091Z,61.60
2018-02-21T03:37:49.099Z,62.10
2018-02-21T03:38:49.108Z,63.30
2018-02-21T03:39:49.128Z,62.50
2018-02-21T03:40:49.132Z,63.30
2018-02-21T03:41:49.141Z,62.30
2018-02-21T03:42:49.155Z,61.90
2018-02-21T03:43:49.164Z,64.00
2018-02-21T03:44:49.175Z,65.00
2018-02-21T03:45:49.196Z,65.40
2018-02-21T03:46:49.196Z,65.70
2018-02-21T03:47:49.206Z,64.40
2018-02-21T03:48:49.217Z,66.80
2018-02-21T03:49:49.231Z,65.80
2018-02-21T03:50:49.240Z,66.20
2018-02-21T03:51:49.259Z,66.00
2018-02-21T03:52:49.260Z,65.70
2018-02-21T03:53:49.273Z,66.10
2018-02-21T03:54:49.279Z,68.80
2018-02-21T03:55:49.296Z,66.50
2018-02-21T03:56:49.305Z,63.50
2018-02-21T03:57:49.310Z,68.40
2018-02-21T03:58:49.321Z,64.30
2018-02-21T03:59:49.331Z,66.70
2018-02-21T04:00:49.346Z,66.30
2018-02-21T04:01:49.353Z,63.80
2018-02-21T04:02:49.364Z,61.10
2018-02-21T04:03:49.376Z,61.00
2018-02-21T04:04:49.387Z,60.30
2018-02-21T04:05:49.396Z,61.00
2018-02-21T04:06:49.405Z,60.80
2018-02-21T04:07:49.417Z,61.00
2018-02-21T04:08:49.428Z,60.70
2018-02-21T04:09:49.437Z,59.30
2018-02-21T04:10:49.452Z,63.80
2018-02-21T04:11:49.460Z,65.10
2018-02-21T04:12:49.471Z,66.50
2018-02-21T04:13:49.479Z,63.30
2018-02-21T04:14:49.495Z,66.00
2018-02-21T04:15:49.505Z,63.60
2018-02-21T04:16:49.512Z,63.10
2018-02-21T04:17:49.524Z,63.40
2018-02-21T04:18:49.534Z,64.70
2018-02-21T04:19:49.543Z,65.40
2018-02-21T04:20:49.556Z,66.10
2018-02-21T04:21:49.564Z,64.50
2018-02-21T04:22:49.577Z,64.10
2018-02-21T04:23:49.586Z,63.60
2018-02-21T04:24:49.597Z,66.00
2018-02-21T04:25:49.614Z,65.70
2018-02-21T04:26:49.619Z,63.80
2018-02-21T04:27:49.628Z,62.40
2018-02-21T04:28:49.639Z,64.20
2018-02-21T04:29:49.653Z,63.70
2018-02-21T04:30:49.662Z,62.30
2018-02-21T04:31:49.671Z,61.40
2018-02-21T04:32:49.681Z,62.10
2018-02-21T04:33:49.690Z,63.70
2018-02-21T04:34:49.703Z,62.70
2018-02-21T04:35:49.710Z,62.30
2018-02-21T04:36:49.722Z,59.90
2018-02-21T04:37:49.735Z,61.80
2018-02-21T04:38:49.743Z,63.70
2018-02-21T04:39:49.762Z,64.40
2018-02-21T04:40:49.773Z,64.20
2018-02-21T04:41:49.778Z,61.80
2018-02-21T04:42:49.792Z,63.30
2018-02-21T04:43:49.800Z,61.60
2018-02-21T04:44:49.805Z,60.60
2018-02-21T04:45:49.816Z,62.50
2018-02-21T04:46:49.827Z,60.10
2018-02-21T04:47:49.838Z,60.60
2018-02-21T04:48:49.848Z,60.40
2018-02-21T04:49:49.858Z,61.70
2018-02-21T04:50:49.872Z,60.90
2018-02-21T04:51:49.880Z,58.00
2018-02-21T04:52:49.892Z,59.20
2018-02-21T04:53:49.897Z,57.90
2018-02-21T04:54:49.910Z,59.20
2018-02-21T04:55:49.921Z,59.40
2018-02-21T04:56:49.931Z,58.80
2018-02-21T04:57:49.943Z,58.10
2018-02-21T04:58:49.952Z,57.20
2018-02-21T04:59:49.966Z,57.30
2018-02-21T05:00:49.971Z,56.70
2018-02-21T05:01:49.981Z,58.30
2018-02-21T05:02:49.994Z,56.50
2018-02-21T05:03:50.005Z,57.30
2018-02-21T05:04:50.016Z,56.90
2018-02-21T05:05:50.035Z,59.10
2018-02-21T05:06:50.035Z,58.10
2018-02-21T05:07:50.045Z,57.60
2018-02-21T05:08:50.068Z,58.70
2018-02-21T05:09:50.070Z,57.80
2018-02-21T05:10:50.077Z,57.80
2018-02-21T05:11:50.092Z,59.20
2018-02-21T05:12:50.098Z,58.00
2018-02-21T05:13:50.108Z,60.00
2018-02-21T05:14:50.118Z,60.00
2018-02-21T05:15:50.133Z,59.70
2018-02-21T05:16:50.150Z,60.30
2018-02-21T05:17:50.151Z,60.20
2018-02-21T05:18:50.163Z,61.60
2018-02-21T05:19:50.172Z,60.70
2018-02-21T05:20:50.183Z,59.40
2018-02-21T05:21:50.192Z,56.70
2018-02-21T05:22:50.205Z,56.90
2018-02-21T05:23:50.217Z,54.20
2018-02-21T05:24:50.222Z,57.30
2018-02-21T05:25:50.234Z,55.90
2018-02-21T05:26:50.245Z,56.20
2018-02-21T05:27:50.255Z,58.70
2018-02-21T05:28:50.265Z,55.40
2018-02-21T05:29:50.275Z,54.80
2018-02-21T05:30:50.288Z,57.50
2018-02-21T05:31:50.295Z,58.60
2018-02-21T05:32:50.307Z,57.00
2018-02-21T05:33:50.314Z,57.50
2018-02-21T05:34:50.325Z,57.50
2018-02-21T05:35:50.337Z,56.80
2018-02-21T05:36:50.347Z,56.60
2018-02-21T05:37:50.356Z,56.10
2018-02-21T05:38:50.367Z,56.00
2018-02-21T05:39:50.378Z,55.10
2018-02-21T05:40:50.387Z,54.90
2018-02-21T05:41:50.409Z,56.30
2018-02-21T05:42:50.412Z,57.50
2018-02-21T05:43:50.421Z,59.50
2018-02-21T05:44:50.432Z,58.80
2018-02-21T05:45:50.450Z,59.70
2018-02-21T05:46:50.456Z,59.60
2018-02-21T05:47:50.460Z,58.50
2018-02-21T05:48:50.472Z,60.40
2018-02-21T05:49:50.483Z,60.50
2018-02-21T05:50:50.490Z,59.90
2018-02-21T05:51:50.501Z,58.00
2018-02-21T05:52:50.511Z,58.20
2018-02-21T05:53:50.542Z,59.40
2018-02-21T05:54:50.537Z,58.20
2018-02-21T05:55:50.540Z,59.80
2018-02-21T05:56:50.552Z,58.90
2018-02-21T05:57:50.562Z,63.30
2018-02-21T05:58:50.575Z,67.60
2018-02-21T05:59:50.628Z,63.70
2018-02-21T06:00:50.594Z,63.90
2018-02-21T06:01:50.602Z,61.90
2018-02-21T06:02:50.614Z,61.20
2018-02-21T06:03:50.622Z,60.40
2018-02-21T06:04:50.633Z,62.10
2018-02-21T06:05:50.641Z,61.80
2018-02-21T06:06:50.660Z,63.00
2018-02-21T06:07:50.665Z,64.30
2018-02-21T06:08:50.674Z,64.20
2018-02-21T06:09:50.684Z,68.20
2018-02-21T06:10:50.694Z,65.50
2018-02-21T06:11:50.704Z,62.80
2018-02-21T06:12:50.715Z,60.60
2018-02-21T06:13:50.725Z,59.20
2018-02-21T06:14:50.741Z,58.80
2018-02-21T06:15:50.757Z,57.30
2018-02-21T06:16:50.754Z,57.60
2018-02-21T06:17:50.765Z,56.80
2018-02-21T06:18:50.774Z,57.00
2018-02-21T06:19:50.786Z,57.40
2018-02-21T06:20:50.802Z,57.80
2018-02-21T06:21:50.803Z,58.40
2018-02-21T06:22:50.818Z,56.80
2018-02-21T06:23:50.827Z,57.80
2018-02-21T06:24:50.838Z,57.10
2018-02-21T06:25:50.844Z,59.00
2018-02-21T06:26:50.855Z,58.80
2018-02-21T06:27:50.867Z,59.00
2018-02-21T06:28:50.881Z,57.20
2018-02-21T06:29:50.886Z,57.60
2018-02-21T06:30:50.899Z,58.40
2018-02-21T06:31:50.906Z,56.20
2018-02-21T06:32:50.933Z,55.20
2018-02-21T06:33:50.930Z,55.60
2018-02-21T06:34:50.937Z,55.90
2018-02-21T06:35:50.948Z,55.10
2018-02-21T06:36:50.959Z,54.30
2018-02-21T06:37:50.970Z,55.80
2018-02-21T06:38:50.978Z,57.30
2018-02-21T06:39:50.986Z,55.90
2018-02-21T06:40:51.000Z,55.70
2018-02-21T06:41:51.007Z,55.30
2018-02-21T06:42:51.017Z,57.10
2018-02-21T06:43:51.081Z,55.50
2018-02-21T06:44:51.042Z,58.10
2018-02-21T06:45:51.069Z,59.10
2018-02-21T06:46:51.058Z,65.60
2018-02-21T06:47:51.069Z,73.10
2018-02-21T06:48:51.085Z,76.60
2018-02-21T06:49:51.088Z,73.20
2018-02-21T06:50:51.100Z,67.80
2018-02-21T06:51:51.114Z,62.20
2018-02-21T06:52:51.119Z,62.20
2018-02-21T06:53:51.130Z,62.40
2018-02-21T06:54:51.141Z,61.80
2018-02-21T06:55:51.151Z,65.60
2018-02-21T06:56:51.163Z,61.00
2018-02-21T06:57:51.175Z,61.60
2018-02-21T06:58:51.183Z,60.80
2018-02-21T06:59:51.192Z,57.10
2018-02-21T07:00:51.207Z,56.50
2018-02-21T07:01:51.279Z,55.40
2018-02-21T07:02:51.225Z,55.30
2018-02-21T07:03:51.236Z,55.30
2018-02-21T07:04:51.246Z,54.60
2018-02-21T07:05:51.257Z,55.00
2018-02-21T07:06:51.267Z,53.20
2018-02-21T07:07:51.277Z,55.60
2018-02-21T07:08:51.288Z,54.90
2018-02-21T07:09:51.299Z,56.50
2018-02-21T07:10:51.308Z,54.20
2018-02-21T07:11:51.320Z,54.00
2018-02-21T07:12:51.340Z,55.40
2018-02-21T07:13:51.341Z,55.00
2018-02-21T07:14:51.359Z,53.30
2018-02-21T07:15:51.366Z,53.00
2018-02-21T07:16:51.377Z,53.50
2018-02-21T07:17:51.390Z,53.60
2018-02-21T07:18:51.399Z,55.20
2018-02-21T07:19:51.412Z,55.20
2018-02-21T07:20:51.426Z,54.60
2018-02-21T07:21:51.435Z,56.50
2018-02-21T07:22:51.448Z,58.10
2018-02-21T07:23:51.464Z,55.70
2018-02-21T07:24:51.470Z,55.10
2018-02-21T07:25:51.484Z,52.90
2018-02-21T07:26:51.496Z,54.50
2018-02-21T07:27:51.508Z,55.10
2018-02-21T07:28:51.530Z,52.60
2018-02-21T07:29:51.536Z,51.40
2018-02-21T07:30:51.545Z,51.70
2018-02-21T07:31:51.561Z,51.70
2018-02-21T07:32:51.569Z,50.80
2018-02-21T07:33:51.584Z,50.60
2018-02-21T07:34:51.593Z,51.20
2018-02-21T07:35:51.611Z,50.00
2018-02-21T07:36:51.623Z,51.40
2018-02-21T07:37:51.636Z,51.80
2018-02-21T07:38:51.647Z,49.80
2018-02-21T07:39:51.660Z,49.30
2018-02-21T07:40:51.674Z,49.20
2018-02-21T07:41:51.686Z,49.30
2018-02-21T07:42:51.699Z,50.10
2018-02-21T07:43:51.713Z,48.00
2018-02-21T07:44:51.726Z,49.30
2018-02-21T07:45:51.740Z,51.00
2018-02-21T07:46:51.755Z,49.40
2018-02-21T07:47:51.770Z,48.70
2018-02-21T07:48:51.784Z,48.60
2018-02-21T07:49:51.796Z,49.20
2018-02-21T07:50:51.809Z,49.70
2018-02-21T07:51:51.824Z,48.90
2018-02-21T07:52:51.839Z,48.40
2018-02-21T07:53:51.850Z,49.70
2018-02-21T07:54:51.865Z,47.40
2018-02-21T07:55:51.884Z,47.40
2018-02-21T07:56:51.894Z,47.30
2018-02-21T07:57:51.910Z,48.30
2018-02-21T07:58:51.925Z,47.10
2018-02-21T07:59:51.938Z,46.90
2018-02-21T08:00:51.950Z,47.10
2018-02-21T08:01:51.970Z,46.40
2018-02-21T08:02:51.981Z,46.30
2018-02-21T08:03:51.994Z,47.90
2018-02-21T08:04:52.013Z,46.30
2018-02-21T08:05:52.037Z,46.80
2018-02-21T08:06:52.043Z,47.10
2018-02-21T08:07:52.055Z,46.10
2018-02-21T08:08:52.074Z,47.60
2018-02-21T08:09:52.092Z,48.70
2018-02-21T08:10:52.104Z,48.70
2018-02-21T08:11:52.118Z,47.90
2018-02-21T08:12:52.133Z,45.80
2018-02-21T08:13:52.152Z,49.40
2018-02-21T08:14:52.166Z,47.70
2018-02-21T08:15:52.183Z,47.20
2018-02-21T08:16:52.198Z,48.60
2018-02-21T08:17:52.215Z,50.10
2018-02-21T08:18:52.244Z,50.10
2018-02-21T08:19:52.251Z,45.50
2018-02-21T08:20:52.269Z,42.40
2018-02-21T08:21:52.285Z,42.30
2018-02-21T08:22:52.298Z,43.50
2018-02-21T08:23:52.312Z,43.60
2018-02-21T08:24:52.331Z,43.50
2018-02-21T08:25:52.407Z,42.00
2018-02-21T08:26:52.362Z,41.00
2018-02-21T08:27:52.382Z,41.00
2018-02-21T08:28:52.400Z,41.70
2018-02-21T08:29:52.414Z,41.60
2018-02-21T08:30:52.433Z,41.70
2018-02-21T08:31:52.447Z,40.40
2018-02-21T08:32:52.469Z,41.60
2018-02-21T08:33:52.486Z,41.20
2018-02-21T08:34:52.495Z,40.20
2018-02-21T08:35:52.514Z,41.10
2018-02-21T08:36:52.532Z,41.30
2018-02-21T08:37:52.545Z,43.10
2018-02-21T08:38:52.562Z,41.70
2018-02-21T08:39:52.577Z,41.40
2018-02-21T08:40:52.600Z,41.40
2018-02-21T08:41:52.610Z,40.90
2018-02-21T08:42:52.625Z,41.30
2018-02-21T08:43:52.639Z,41.00
2018-02-21T08:44:52.654Z,41.30
2018-02-21T08:45:52.671Z,40.90
2018-02-21T08:46:52.685Z,39.60
2018-02-21T08:47:52.701Z,39.90
2018-02-21T08:48:52.715Z,39.70
2018-02-21T08:49:52.728Z,39.50
2018-02-21T08:50:52.745Z,36.80
2018-02-21T08:51:52.757Z,39.50
2018-02-21T08:52:52.774Z,36.80
2018-02-21T08:53:52.786Z,39.10
2018-02-21T08:54:52.808Z,39.10
2018-02-21T08:55:52.816Z,38.00
2018-02-21T08:56:52.830Z,38.70
2018-02-21T08:57:52.848Z,39.20
2018-02-21T08:58:52.857Z,38.20
2018-02-21T08:59:52.867Z,38.70
2018-02-21T09:00:52.883Z,37.20
2018-02-21T09:01:52.895Z,37.70
2018-02-21T09:02:52.906Z,37.50
2018-02-21T09:03:52.917Z,37.80
2018-02-21T09:04:52.934Z,38.00
2018-02-21T09:05:52.947Z,37.40
2018-02-21T09:06:52.961Z,36.40
2018-02-21T09:07:52.967Z,36.90
2018-02-21T09:08:52.983Z,36.60
2018-02-21T09:09:52.996Z,37.40
2018-02-21T09:10:53.010Z,38.70
2018-02-21T09:11:53.022Z,36.40
2018-02-21T09:12:53.033Z,36.90
2018-02-21T09:13:53.054Z,36.40
2018-02-21T09:14:53.060Z,37.00
2018-02-21T09:15:53.072Z,37.10
2018-02-21T09:16:53.084Z,34.30
2018-02-21T09:17:53.097Z,35.00
2018-02-21T09:18:53.122Z,37.20
2018-02-21T09:19:53.124Z,37.30
2018-02-21T09:20:53.138Z,35.20
2018-02-21T09:21:53.149Z,35.00
2018-02-21T09:22:53.164Z,35.20
2018-02-21T09:23:53.179Z,35.50
2018-02-21T09:24:53.192Z,34.70
2018-02-21T09:25:53.202Z,34.50
2018-02-21T09:26:53.213Z,34.60
2018-02-21T09:27:53.228Z,33.00
2018-02-21T09:28:53.243Z,31.30
2018-02-21T09:29:53.253Z,33.90
2018-02-21T09:30:53.267Z,33.30
2018-02-21T09:31:53.279Z,31.50
2018-02-21T09:32:53.296Z,32.70
2018-02-21T09:33:53.307Z,32.00
2018-02-21T09:34:53.322Z,32.60
2018-02-21T09:35:53.332Z,32.00
2018-02-21T09:36:53.345Z,32.40
2018-02-21T09:37:53.356Z,30.70
2018-02-21T09:38:53.373Z,32.70
2018-02-21T09:39:53.385Z,30.90
2018-02-21T09:40:53.401Z,31.60
2018-02-21T09:41:53.411Z,32.30
2018-02-21T09:42:53.424Z,31.50
2018-02-21T09:43:53.440Z,30.90
2018-02-21T09:44:53.450Z,31.70
2018-02-21T09:45:53.464Z,29.40
2018-02-21T09:46:53.481Z,27.90
2018-02-21T09:47:53.489Z,27.70
2018-02-21T09:48:53.500Z,29.80
2018-02-21T09:49:53.520Z,29.30
2018-02-21T09:50:53.526Z,28.90
2018-02-21T09:51:53.542Z,28.80
2018-02-21T09:52:53.555Z,29.80
2018-02-21T09:53:53.565Z,28.80
2018-02-21T09:54:53.581Z,27.90
2018-02-21T09:55:53.595Z,28.10
2018-02-21T09:56:53.607Z,28.50
2018-02-21T09:57:53.617Z,28.10
2018-02-21T09:58:53.630Z,27.70
2018-02-21T09:59:53.647Z,26.60
2018-02-21T10:00:53.659Z,27.30
2018-02-21T10:01:53.676Z,28.30
2018-02-21T10:02:53.683Z,28.30
2018-02-21T10:03:53.699Z,27.20
2018-02-21T10:04:53.711Z,27.00
2018-02-21T10:05:53.724Z,27.90
2018-02-21T10:06:53.735Z,27.10
2018-02-21T10:07:53.751Z,27.90
2018-02-21T10:08:53.761Z,29.40
2018-02-21T10:09:53.772Z,28.00
2018-02-21T10:10:53.788Z,28.30
2018-02-21T10:11:53.800Z,26.70
2018-02-21T10:12:53.816Z,26.60
2018-02-21T10:13:53.827Z,27.30
2018-02-21T10:14:53.838Z,27.00
2018-02-21T10:15:53.853Z,25.30
2018-02-21T10:16:53.866Z,26.40
2018-02-21T10:17:53.878Z,24.90
2018-02-21T10:18:53.893Z,25.90
2018-02-21T10:19:53.906Z,25.80
2018-02-21T10:20:53.918Z,24.90
2018-02-21T10:21:53.934Z,25.30
2018-02-21T10:22:53.942Z,26.30
2018-02-21T10:23:53.963Z,24.90
2018-02-21T10:24:53.971Z,24.70
2018-02-21T10:25:53.986Z,24.80
2018-02-21T10:26:53.996Z,23.60
2018-02-21T10:27:54.009Z,24.50
2018-02-21T10:28:54.027Z,25.40
2018-02-21T10:29:54.049Z,24.70
2018-02-21T10:30:54.052Z,25.40
2018-02-21T10:31:54.065Z,25.50
2018-02-21T10:32:54.075Z,25.10
2018-02-21T10:33:54.090Z,25.90
2018-02-21T10:34:54.099Z,26.20
2018-02-21T10:35:54.114Z,26.20
2018-02-21T10:36:54.127Z,25.20
2018-02-21T10:37:54.137Z,24.80
2018-02-21T10:38:54.150Z,26.20
2018-02-21T10:39:54.166Z,26.20
2018-02-21T10:40:54.176Z,23.70
2018-02-21T10:41:54.190Z,25.00
2018-02-21T10:42:54.204Z,26.60
2018-02-21T10:43:54.217Z,25.80
2018-02-21T10:44:54.240Z,24.10
2018-02-21T10:45:54.243Z,24.20
2018-02-21T10:46:54.257Z,24.00
2018-02-21T10:47:54.269Z,23.30
2018-02-21T10:48:54.286Z,24.50
2018-02-21T10:49:54.297Z,24.00
2018-02-21T10:50:54.308Z,23.90
2018-02-21T10:51:54.323Z,24.50
2018-02-21T10:52:54.341Z,25.60
2018-02-21T10:53:54.375Z,25.00
2018-02-21T10:54:54.359Z,24.90
2018-02-21T10:55:54.375Z,24.30
2018-02-21T10:56:54.393Z,24.20
2018-02-21T10:57:54.401Z,24.50
2018-02-21T10:58:54.412Z,25.00
2018-02-21T10:59:54.427Z,24.90
2018-02-21T11:00:54.441Z,24.80
2018-02-21T11:01:54.453Z,25.50
2018-02-21T11:02:54.464Z,24.20
2018-02-21T11:03:54.479Z,24.60
2018-02-21T11:04:54.518Z,25.30
2018-02-21T11:05:54.509Z,24.60
2018-02-21T11:06:54.517Z,22.90
2018-02-21T11:07:54.536Z,23.70
2018-02-21T11:08:54.547Z,24.20
2018-02-21T11:09:54.555Z,24.60
2018-02-21T11:10:54.570Z,23.80
2018-02-21T11:11:54.584Z,24.60
2018-02-21T11:12:54.599Z,24.50
2018-02-21T11:13:54.609Z,23.20
2018-02-21T11:14:54.624Z,23.20
2018-02-21T11:15:54.634Z,23.30
2018-02-21T11:16:54.648Z,25.20
2018-02-21T11:17:54.663Z,24.10
2018-02-21T11:18:54.676Z,23.10
2018-02-21T11:19:54.689Z,24.10
2018-02-21T11:20:54.701Z,23.40
2018-02-21T11:21:54.714Z,22.50
2018-02-21T11:22:54.727Z,22.20
2018-02-21T11:23:54.745Z,22.40
2018-02-21T11:24:54.787Z,22.40
2018-02-21T11:25:54.769Z,23.10
2018-02-21T11:26:54.782Z,23.70
2018-02-21T11:27:54.793Z,20.10
2018-02-21T11:28:54.828Z,21.60
2018-02-21T11:29:54.820Z,20.60
2018-02-21T11:30:54.833Z,19.80
2018-02-21T11:31:54.845Z,20.10
2018-02-21T11:32:54.862Z,19.10
2018-02-21T11:33:54.874Z,19.00
2018-02-21T11:34:54.885Z,20.00
2018-02-21T11:35:54.901Z,20.50
2018-02-21T11:36:54.912Z,18.20
2018-02-21T11:37:54.954Z,19.20
2018-02-21T11:38:54.938Z,18.40
2018-02-21T11:39:54.951Z,18.80
2018-02-21T11:40:54.967Z,18.90
2018-02-21T11:41:54.977Z,19.50
2018-02-21T11:42:54.991Z,20.00
2018-02-21T11:43:55.004Z,19.70
2018-02-21T11:44:55.021Z,19.10
2018-02-21T11:45:55.031Z,20.70
2018-02-21T11:46:55.044Z,20.50
2018-02-21T11:47:55.058Z,20.60
2018-02-21T11:48:55.072Z,20.50
2018-02-21T11:49:55.084Z,21.20
2018-02-21T11:50:55.103Z,21.00
2018-02-21T11:51:55.113Z,20.70
2018-02-21T11:52:55.126Z,21.50
2018-02-21T11:53:55.138Z,22.10
2018-02-21T11:54:55.149Z,22.00
2018-02-21T11:55:55.169Z,21.50
2018-02-21T11:56:55.180Z,20.30
2018-02-21T11:57:55.187Z,21.70
2018-02-21T11:58:55.207Z,21.10
2018-02-21T11:59:55.214Z,20.40
2018-02-21T12:00:55.230Z,22.00
2018-02-21T12:01:55.246Z,21.40
2018-02-21T12:02:55.256Z,22.40
2018-02-21T12:03:55.270Z,21.40
2018-02-21T12:04:55.281Z,21.90
2018-02-21T12:05:55.293Z,20.70
2018-02-21T12:06:55.309Z,20.70
2018-02-21T12:07:55.321Z,21.20
2018-02-21T12:08:55.336Z,21.30
2018-02-21T12:09:55.348Z,21.20
2018-02-21T12:10:55.362Z,21.00
2018-02-21T12:11:55.372Z,21.00
2018-02-21T12:12:55.392Z,22.10
2018-02-21T12:13:55.399Z,21.60
2018-02-21T12:14:55.415Z,22.10
2018-02-21T12:15:55.427Z,22.60
2018-02-21T12:16:55.443Z,20.60
2018-02-21T12:17:55.459Z,20.60
2018-02-21T12:18:55.472Z,22.40
2018-02-21T12:19:55.482Z,21.50
2018-02-21T12:20:55.495Z,20.80
2018-02-21T12:21:55.507Z,21.60
2018-02-21T12:22:55.521Z,21.90
2018-02-21T12:23:55.534Z,21.60
2018-02-21T12:24:55.550Z,21.20
2018-02-21T12:25:55.564Z,21.60
2018-02-21T12:26:55.574Z,21.30
2018-02-21T12:27:55.588Z,21.50
2018-02-21T12:28:55.600Z,21.60
2018-02-21T12:29:55.614Z,22.10
2018-02-21T12:30:55.626Z,21.60
2018-02-21T12:31:55.642Z,22.20
2018-02-21T12:32:55.655Z,22.80
2018-02-21T12:33:55.666Z,23.30
2018-02-21T12:34:55.692Z,22.90
2018-02-21T12:35:55.698Z,22.00
2018-02-21T12:36:55.709Z,21.50
2018-02-21T12:37:55.722Z,21.60
2018-02-21T12:38:55.735Z,20.90
2018-02-21T12:39:55.750Z,20.90
2018-02-21T12:40:55.761Z,22.00
2018-02-21T12:41:55.775Z,20.90
2018-02-21T12:42:55.789Z,21.00
2018-02-21T12:43:55.804Z,22.20
2018-02-21T12:44:55.817Z,21.60
2018-02-21T12:45:55.828Z,21.40
2018-02-21T12:46:55.841Z,20.40
2018-02-21T12:47:55.857Z,21.00
2018-02-21T12:48:55.870Z,21.40
2018-02-21T12:49:55.882Z,20.00
2018-02-21T12:50:55.895Z,21.80
2018-02-21T12:51:55.914Z,21.50
2018-02-21T12:52:55.925Z,20.70